createdAt,value
2022-11-26T18:42:56.258Z,39.40
2022-11-26T18:48:24.336Z,39.00
2022-11-26T18:53:50.546Z,37.00
2022-11-26T18:56:33.554Z,38.70
2022-11-26T18:59:16.370Z,38.30
2022-11-26T19:04:42.301Z,35.90
2022-11-26T19:10:08.993Z,41.80
2022-11-26T19:12:51.897Z,39.10
2022-11-26T19:18:17.488Z,35.20
2022-11-26T19:21:04.082Z,37.50
2022-11-26T19:23:47.192Z,35.90
2022-11-26T19:26:30.836Z,38.30
2022-11-26T19:29:14.058Z,37.80
2022-11-26T19:31:56.810Z,40.00
2022-11-26T19:37:22.599Z,37.60
2022-11-26T19:42:48.869Z,36.70
2022-11-26T19:48:14.768Z,37.50
2022-11-26T19:56:30.476Z,39.50
2022-11-26T19:59:13.409Z,40.40
2022-11-26T20:01:57.457Z,38.90
2022-11-26T20:04:40.388Z,38.40
2022-11-26T20:07:23.301Z,41.00
2022-11-26T20:10:06.780Z,41.20
2022-11-26T20:12:50.623Z,39.40
2022-11-26T20:15:38.268Z,40.60
2022-11-26T20:18:21.360Z,45.00
2022-11-26T20:21:07.406Z,41.80
2022-11-26T20:23:52.000Z,39.40
2022-11-26T20:26:40.851Z,41.50
2022-11-26T20:29:24.072Z,39.90
2022-11-26T20:32:06.857Z,40.90
2022-11-26T20:37:32.453Z,41.30
2022-11-26T20:42:58.915Z,41.20
2022-11-26T20:45:41.793Z,41.30
2022-11-26T20:48:24.583Z,42.40
2022-11-26T20:53:53.777Z,43.50
2022-11-26T20:56:37.257Z,41.20
2022-11-26T20:59:20.112Z,41.70
2022-11-26T21:02:03.437Z,44.80
2022-11-26T21:04:46.295Z,41.80
2022-11-26T21:10:14.694Z,42.40
2022-11-26T21:12:57.463Z,42.30
2022-11-26T21:18:24.008Z,42.70
2022-11-26T21:21:12.048Z,42.30
2022-11-26T21:23:55.013Z,41.30
2022-11-26T21:26:38.057Z,43.70
2022-11-26T21:29:21.623Z,45.30
2022-11-26T21:32:04.923Z,44.50
2022-11-26T21:34:47.741Z,42.50
2022-11-26T21:37:30.625Z,41.10
2022-11-26T21:42:56.586Z,44.40
2022-11-26T21:48:22.069Z,43.00
2022-11-26T21:53:54.000Z,38.60
2022-11-26T21:56:37.197Z,39.00
2022-11-26T21:59:20.352Z,36.80
2022-11-26T22:02:05.355Z,39.10
2022-11-26T22:04:48.400Z,40.10
2022-11-26T22:07:31.582Z,37.80
2022-11-26T22:10:14.840Z,39.90
2022-11-26T22:15:42.550Z,36.00
2022-11-26T22:18:25.540Z,41.00
2022-11-26T22:21:15.894Z,40.80
2022-11-26T22:24:01.473Z,39.70
2022-11-26T22:26:45.307Z,38.70
2022-11-26T22:29:28.085Z,39.50
2022-11-26T22:34:53.486Z,36.20
2022-11-26T22:40:20.023Z,37.50
2022-11-26T22:45:47.743Z,33.80
2022-11-26T22:48:30.691Z,30.80
2022-11-26T22:51:13.606Z,31.70
2022-11-26T22:54:03.397Z,31.20
2022-11-26T22:56:46.295Z,29.90
2022-11-26T22:59:29.411Z,30.00
2022-11-26T23:02:12.207Z,28.70
2022-11-26T23:04:55.144Z,29.10
2022-11-26T23:10:20.946Z,28.90
2022-11-26T23:15:47.548Z,24.90
2022-11-26T23:18:30.736Z,29.10
2022-11-26T23:24:01.904Z,25.40
2022-11-26T23:26:45.727Z,28.30
2022-11-26T23:29:28.743Z,25.80
2022-11-26T23:34:54.729Z,28.90
2022-11-26T23:37:39.121Z,31.70
2022-11-26T23:40:22.036Z,32.50
2022-11-26T23:43:08.631Z,35.40
2022-11-26T23:46:04.294Z,34.80
2022-11-26T23:48:48.381Z,36.90
2022-11-26T23:51:32.483Z,35.50
2022-11-26T23:54:15.337Z,35.70
2022-11-26T23:56:58.216Z,38.30
